CFG7AL EDDH-GCTS
Flight info
| Callsign | CFG7AL |
|---|---|
| Flight time | 4h 46m |
| Altitude | 36000 |
| Route | WSN5G WSN N125 SILQI N872 PAM/N0442F350 N872 CIV/N0442F360 DCT MEDIL/N0439F350 DCT KOVIN DCT NIDUV DCT KIHVI UN872 ERIGA UZ218 FUJTI DCT BAKUP DCT BATAX/N0443F370 DCT BEXAL UN866 KONBA |
| Aircraft | A21N/M-SDE2E3FGHIRWXY/LB1 |
Departure
| Time | 2026-04-26 10:01 |
|---|---|
| Airport | Hamburg Helmut Schmidt Airport (EDDH) |
Arrival
| Time | 2026-04-26 14:47 |
|---|---|
| Airport | Tenerife Sur Airport (GCTS) |
| Time | Latitude | Longitude | Altitude | Speed | Heading |
|---|---|---|---|---|---|
| 2026-04-26 09:49 | 53.63076 | 10.00367 | 52 ft | 0 kts | 99° |
| 2026-04-26 09:56 | 53.63078 | 10.00348 | 52 ft | 2 kts | 99° |
| 2026-04-26 09:56 | 53.63080 | 10.00320 | 51 ft | 2 kts | 98° |
| 2026-04-26 09:56 | 53.63082 | 10.00293 | 51 ft | 2 kts | 96° |
| 2026-04-26 09:56 | 53.63084 | 10.00266 | 48 ft | 2 kts | 94° |
| 2026-04-26 09:57 | 53.63085 | 10.00238 | 48 ft | 2 kts | 105° |
| 2026-04-26 09:57 | 53.63093 | 10.00214 | 51 ft | 2 kts | 132° |
| 2026-04-26 09:57 | 53.63105 | 10.00195 | 50 ft | 2 kts | 152° |
| 2026-04-26 09:57 | 53.63113 | 10.00190 | 54 ft | 0 kts | 171° |
| 2026-04-26 09:58 | 53.63085 | 10.00190 | 50 ft | 7 kts | 187° |
| 2026-04-26 09:58 | 53.63036 | 10.00146 | 51 ft | 13 kts | 212° |
| 2026-04-26 09:59 | 53.62936 | 10.00032 | 54 ft | 16 kts | 229° |
| 2026-04-26 09:59 | 53.62907 | 9.99944 | 53 ft | 13 kts | 243° |
| 2026-04-26 09:59 | 53.62897 | 9.99913 | 52 ft | 0 kts | 242° |
| 2026-04-26 10:00 | 53.62885 | 9.99876 | 52 ft | 10 kts | 242° |
| 2026-04-26 10:00 | 53.62866 | 9.99772 | 51 ft | 7 kts | 286° |
| 2026-04-26 10:00 | 53.62901 | 9.99717 | 53 ft | 6 kts | 333° |
| 2026-04-26 10:00 | 53.63078 | 9.99562 | 51 ft | 66 kts | 332° |
| 2026-04-26 10:01 | 53.63743 | 9.98990 | 51 ft | 149 kts | 333° |
| 2026-04-26 10:01 | 53.64824 | 9.98088 | 375 ft | 182 kts | 332° |
| 2026-04-26 10:01 | 53.65983 | 9.97108 | 1083 ft | 194 kts | 333° |
| 2026-04-26 10:01 | 53.67237 | 9.96152 | 1929 ft | 201 kts | 336° |
| 2026-04-26 10:02 | 53.68589 | 9.95168 | 2438 ft | 230 kts | 336° |
| 2026-04-26 10:02 | 53.70128 | 9.94023 | 3040 ft | 249 kts | 336° |
| 2026-04-26 10:02 | 53.71594 | 9.92434 | 3958 ft | 253 kts | 315° |
| 2026-04-26 10:02 | 53.72550 | 9.89951 | 4988 ft | 254 kts | 291° |
| 2026-04-26 10:03 | 53.72810 | 9.86997 | 5962 ft | 259 kts | 267° |
| 2026-04-26 10:03 | 53.72316 | 9.84044 | 6914 ft | 267 kts | 244° |
| 2026-04-26 10:03 | 53.71346 | 9.81365 | 7820 ft | 273 kts | 241° |
| 2026-04-26 10:03 | 53.70387 | 9.78579 | 8803 ft | 276 kts | 246° |
| 2026-04-26 10:04 | 53.69543 | 9.75632 | 9690 ft | 279 kts | 250° |
| 2026-04-26 10:04 | 53.68792 | 9.72575 | 10208 ft | 282 kts | 253° |
| 2026-04-26 10:04 | 53.68103 | 9.69473 | 10338 ft | 283 kts | 255° |
| 2026-04-26 10:04 | 53.67442 | 9.66315 | 10348 ft | 295 kts | 255° |
| 2026-04-26 10:05 | 53.66786 | 9.62997 | 10340 ft | 297 kts | 256° |
| 2026-04-26 10:05 | 53.66144 | 9.59757 | 10349 ft | 296 kts | 255° |
| 2026-04-26 10:05 | 53.65248 | 9.56503 | 10340 ft | 305 kts | 242° |
| 2026-04-26 10:05 | 53.64070 | 9.53587 | 10365 ft | 305 kts | 238° |
| 2026-04-26 10:06 | 53.62777 | 9.50561 | 10750 ft | 325 kts | 238° |
| 2026-04-26 10:06 | 53.61446 | 9.47423 | 11505 ft | 331 kts | 238° |
| 2026-04-26 10:06 | 53.60097 | 9.44246 | 12351 ft | 335 kts | 238° |
| 2026-04-26 10:06 | 53.58729 | 9.41042 | 13206 ft | 338 kts | 238° |
| 2026-04-26 10:07 | 53.57361 | 9.37853 | 14045 ft | 342 kts | 238° |
| 2026-04-26 10:07 | 53.55958 | 9.34590 | 14781 ft | 345 kts | 238° |
| 2026-04-26 10:07 | 53.54546 | 9.31313 | 15562 ft | 347 kts | 238° |
| 2026-04-26 10:07 | 53.53115 | 9.27997 | 16342 ft | 350 kts | 238° |
| 2026-04-26 10:08 | 53.52166 | 9.25804 | 16839 ft | 352 kts | 238° |
| 2026-04-26 10:08 | 53.50243 | 9.21364 | 17843 ft | 356 kts | 238° |
| 2026-04-26 10:08 | 53.48774 | 9.17978 | 18586 ft | 358 kts | 237° |
| 2026-04-26 10:08 | 53.47294 | 9.14570 | 19217 ft | 362 kts | 237° |
| 2026-04-26 10:09 | 53.45802 | 9.11139 | 19815 ft | 365 kts | 237° |
| 2026-04-26 10:09 | 53.44805 | 9.08848 | 20201 ft | 367 kts | 237° |
| 2026-04-26 10:09 | 53.42792 | 9.04230 | 20996 ft | 371 kts | 237° |
| 2026-04-26 10:09 | 53.41777 | 9.01903 | 21381 ft | 373 kts | 237° |
| 2026-04-26 10:10 | 53.40233 | 8.98371 | 21979 ft | 376 kts | 237° |
| 2026-04-26 10:10 | 53.38170 | 8.93659 | 22728 ft | 380 kts | 237° |
| 2026-04-26 10:10 | 53.37111 | 8.91244 | 23109 ft | 382 kts | 237° |
| 2026-04-26 10:10 | 53.35519 | 8.87656 | 23669 ft | 385 kts | 236° |
| 2026-04-26 10:11 | 53.34203 | 8.83839 | 24147 ft | 383 kts | 250° |
| 2026-04-26 10:11 | 53.33318 | 8.79638 | 24594 ft | 383 kts | 256° |
| 2026-04-26 10:11 | 53.32591 | 8.75339 | 25026 ft | 385 kts | 257° |
| 2026-04-26 10:11 | 53.31873 | 8.71015 | 25456 ft | 386 kts | 256° |
| 2026-04-26 10:12 | 53.31098 | 8.66692 | 25862 ft | 389 kts | 254° |
| 2026-04-26 10:12 | 53.30257 | 8.62370 | 26250 ft | 391 kts | 253° |
| 2026-04-26 10:12 | 53.29377 | 8.58110 | 26621 ft | 393 kts | 252° |
| 2026-04-26 10:12 | 53.28449 | 8.53791 | 26991 ft | 395 kts | 252° |
| 2026-04-26 10:13 | 53.27503 | 8.49466 | 27344 ft | 397 kts | 252° |
| 2026-04-26 10:13 | 53.26603 | 8.45084 | 27703 ft | 399 kts | 253° |
| 2026-04-26 10:13 | 53.25748 | 8.40653 | 28048 ft | 400 kts | 254° |
| 2026-04-26 10:13 | 53.24927 | 8.36259 | 28392 ft | 402 kts | 255° |
| 2026-04-26 10:14 | 53.24098 | 8.31785 | 28703 ft | 404 kts | 255° |
| 2026-04-26 10:14 | 53.23262 | 8.27285 | 29014 ft | 406 kts | 254° |
| 2026-04-26 10:14 | 53.22417 | 8.22771 | 29308 ft | 407 kts | 254° |
| 2026-04-26 10:14 | 53.21564 | 8.18251 | 29600 ft | 409 kts | 254° |
| 2026-04-26 10:15 | 53.20697 | 8.13695 | 29862 ft | 412 kts | 254° |
| 2026-04-26 10:15 | 53.19841 | 8.09193 | 30126 ft | 413 kts | 254° |
| 2026-04-26 10:15 | 53.18974 | 8.04607 | 30386 ft | 415 kts | 254° |
| 2026-04-26 10:15 | 53.18105 | 8.00001 | 30607 ft | 416 kts | 254° |
| 2026-04-26 10:16 | 53.17235 | 7.95390 | 30822 ft | 417 kts | 254° |
| 2026-04-26 10:16 | 53.16358 | 7.90757 | 31044 ft | 418 kts | 254° |
| 2026-04-26 10:16 | 53.15478 | 7.86116 | 31243 ft | 419 kts | 254° |
| 2026-04-26 10:16 | 53.14595 | 7.81476 | 31447 ft | 420 kts | 254° |
| 2026-04-26 10:17 | 53.13721 | 7.76894 | 31698 ft | 420 kts | 253° |
| 2026-04-26 10:17 | 53.12832 | 7.72267 | 31982 ft | 419 kts | 253° |
| 2026-04-26 10:17 | 53.11941 | 7.67659 | 32263 ft | 417 kts | 253° |
| 2026-04-26 10:17 | 53.11047 | 7.63071 | 32524 ft | 416 kts | 253° |
| 2026-04-26 10:18 | 53.10147 | 7.58481 | 32734 ft | 416 kts | 253° |
| 2026-04-26 10:18 | 53.09244 | 7.53883 | 32976 ft | 416 kts | 253° |
| 2026-04-26 10:18 | 53.08354 | 7.49365 | 33225 ft | 415 kts | 253° |
| 2026-04-26 10:18 | 53.07453 | 7.44797 | 33473 ft | 414 kts | 253° |
| 2026-04-26 10:19 | 53.06553 | 7.40249 | 33714 ft | 413 kts | 252° |
| 2026-04-26 10:19 | 53.05654 | 7.35711 | 33960 ft | 413 kts | 252° |
| 2026-04-26 10:19 | 53.04755 | 7.31180 | 34189 ft | 412 kts | 252° |
| 2026-04-26 10:19 | 53.03857 | 7.26667 | 34421 ft | 411 kts | 252° |
| 2026-04-26 10:20 | 53.02957 | 7.22150 | 34586 ft | 411 kts | 252° |
| 2026-04-26 10:20 | 53.02046 | 7.17628 | 34689 ft | 413 kts | 252° |
| 2026-04-26 10:20 | 53.01136 | 7.13162 | 34824 ft | 414 kts | 252° |
| 2026-04-26 10:20 | 53.00207 | 7.08633 | 34993 ft | 414 kts | 252° |
| 2026-04-26 10:21 | 52.99274 | 7.04097 | 35119 ft | 415 kts | 252° |
| 2026-04-26 10:21 | 52.98338 | 6.99560 | 35283 ft | 415 kts | 252° |
| 2026-04-26 10:21 | 52.97404 | 6.95031 | 35454 ft | 414 kts | 252° |
| 2026-04-26 10:21 | 52.96468 | 6.90509 | 35619 ft | 414 kts | 252° |
| 2026-04-26 10:22 | 52.95545 | 6.86056 | 35781 ft | 414 kts | 252° |
| 2026-04-26 10:22 | 52.94606 | 6.81535 | 35928 ft | 414 kts | 252° |
| 2026-04-26 10:22 | 52.93669 | 6.77035 | 36079 ft | 414 kts | 252° |
| 2026-04-26 10:22 | 52.92726 | 6.72513 | 36224 ft | 414 kts | 252° |
| 2026-04-26 10:23 | 52.91513 | 6.66702 | 36341 ft | 415 kts | 252° |
| 2026-04-26 10:23 | 52.89629 | 6.57686 | 36342 ft | 415 kts | 252° |
| 2026-04-26 10:24 | 52.87731 | 6.48629 | 36340 ft | 415 kts | 252° |
| 2026-04-26 10:24 | 52.85842 | 6.39641 | 36344 ft | 416 kts | 252° |
| 2026-04-26 10:25 | 52.83930 | 6.30580 | 36331 ft | 416 kts | 252° |
| 2026-04-26 10:25 | 52.82029 | 6.21602 | 36347 ft | 417 kts | 252° |
| 2026-04-26 10:26 | 52.80106 | 6.12551 | 36347 ft | 417 kts | 252° |
| 2026-04-26 10:26 | 52.78174 | 6.03493 | 36348 ft | 417 kts | 252° |
| 2026-04-26 10:27 | 52.76249 | 5.94497 | 36349 ft | 421 kts | 252° |
| 2026-04-26 10:27 | 52.74286 | 5.85293 | 36349 ft | 427 kts | 252° |
| 2026-04-26 10:28 | 52.71411 | 5.76621 | 36355 ft | 437 kts | 234° |
| 2026-04-26 10:28 | 52.67366 | 5.69124 | 36354 ft | 442 kts | 229° |
| 2026-04-26 10:29 | 52.64657 | 5.64436 | 36355 ft | 441 kts | 229° |
| 2026-04-26 10:29 | 52.60491 | 5.57028 | 36349 ft | 440 kts | 230° |
| 2026-04-26 10:30 | 52.56405 | 5.49494 | 36341 ft | 441 kts | 231° |
| 2026-04-26 10:30 | 52.52344 | 5.41905 | 36346 ft | 441 kts | 231° |
| 2026-04-26 10:31 | 52.48316 | 5.34387 | 36347 ft | 441 kts | 231° |
| 2026-04-26 10:31 | 52.44258 | 5.26846 | 36347 ft | 441 kts | 231° |
| 2026-04-26 10:32 | 52.40186 | 5.19310 | 36342 ft | 441 kts | 231° |
| 2026-04-26 10:32 | 52.36105 | 5.11784 | 36345 ft | 441 kts | 231° |
| 2026-04-26 10:33 | 52.31520 | 5.05116 | 36347 ft | 446 kts | 214° |
| 2026-04-26 10:33 | 52.25941 | 5.00642 | 36345 ft | 450 kts | 206° |
| 2026-04-26 10:34 | 52.20302 | 4.96728 | 36345 ft | 450 kts | 206° |
| 2026-04-26 10:34 | 52.14610 | 4.92518 | 36344 ft | 450 kts | 208° |
| 2026-04-26 10:35 | 52.10957 | 4.89685 | 36345 ft | 450 kts | 208° |
| 2026-04-26 10:35 | 52.05309 | 4.85226 | 36344 ft | 451 kts | 209° |
| 2026-04-26 10:36 | 51.99682 | 4.80776 | 36339 ft | 451 kts | 209° |
| 2026-04-26 10:36 | 51.94017 | 4.76320 | 36323 ft | 452 kts | 208° |
| 2026-04-26 10:37 | 51.88344 | 4.71884 | 36340 ft | 453 kts | 208° |
| 2026-04-26 10:37 | 51.82703 | 4.67484 | 36345 ft | 453 kts | 208° |
| 2026-04-26 10:38 | 51.77013 | 4.63060 | 36345 ft | 453 kts | 208° |
| 2026-04-26 10:38 | 51.71326 | 4.58648 | 36333 ft | 453 kts | 208° |
| 2026-04-26 10:39 | 51.65668 | 4.54275 | 36337 ft | 454 kts | 208° |
| 2026-04-26 10:39 | 51.59967 | 4.49878 | 36346 ft | 454 kts | 208° |
| 2026-04-26 10:40 | 51.56540 | 4.47240 | 36341 ft | 454 kts | 208° |
| 2026-04-26 10:40 | 51.50790 | 4.42824 | 36352 ft | 454 kts | 208° |
| 2026-04-26 10:41 | 51.45111 | 4.38478 | 36346 ft | 455 kts | 208° |
| 2026-04-26 10:41 | 51.39381 | 4.34106 | 36346 ft | 455 kts | 208° |
| 2026-04-26 10:42 | 51.33805 | 4.29867 | 36345 ft | 456 kts | 208° |
| 2026-04-26 10:42 | 51.28068 | 4.25514 | 36344 ft | 456 kts | 208° |
| 2026-04-26 10:43 | 51.22330 | 4.21166 | 36339 ft | 456 kts | 208° |
| 2026-04-26 10:43 | 51.16649 | 4.16956 | 36342 ft | 457 kts | 206° |
| 2026-04-26 10:44 | 51.10709 | 4.13426 | 36341 ft | 459 kts | 202° |
| 2026-04-26 10:44 | 51.06798 | 4.11340 | 36337 ft | 460 kts | 201° |
| 2026-04-26 10:45 | 51.00723 | 4.08133 | 36326 ft | 460 kts | 201° |
| 2026-04-26 10:45 | 50.94672 | 4.04885 | 36323 ft | 459 kts | 202° |
| 2026-04-26 10:46 | 50.88602 | 4.01587 | 36317 ft | 459 kts | 202° |
| 2026-04-26 10:46 | 50.82690 | 3.97987 | 36317 ft | 458 kts | 205° |
| 2026-04-26 10:47 | 50.76755 | 3.94115 | 36312 ft | 458 kts | 206° |
| 2026-04-26 10:47 | 50.70891 | 3.90304 | 36306 ft | 459 kts | 205° |
| 2026-04-26 10:48 | 50.64965 | 3.86509 | 36309 ft | 459 kts | 205° |
| 2026-04-26 10:48 | 50.61156 | 3.84089 | 36308 ft | 459 kts | 205° |
| 2026-04-26 10:49 | 50.55268 | 3.80297 | 36308 ft | 459 kts | 206° |
| 2026-04-26 10:49 | 50.49387 | 3.76292 | 36305 ft | 459 kts | 207° |
| 2026-04-26 10:50 | 50.44548 | 3.72961 | 36298 ft | 459 kts | 207° |
| 2026-04-26 10:50 | 50.37724 | 3.68298 | 36297 ft | 459 kts | 207° |
| 2026-04-26 10:51 | 50.28921 | 3.62341 | 36293 ft | 460 kts | 207° |
| 2026-04-26 10:52 | 50.22993 | 3.58346 | 36291 ft | 461 kts | 207° |
| 2026-04-26 10:52 | 50.17139 | 3.54410 | 36289 ft | 461 kts | 206° |
| 2026-04-26 10:53 | 50.11238 | 3.50453 | 36286 ft | 461 kts | 206° |
| 2026-04-26 10:53 | 50.05343 | 3.46513 | 36281 ft | 461 kts | 206° |
| 2026-04-26 10:54 | 49.96512 | 3.40627 | 36280 ft | 461 kts | 206° |
| 2026-04-26 10:54 | 49.90601 | 3.36701 | 36270 ft | 461 kts | 206° |
| 2026-04-26 10:55 | 49.84687 | 3.32784 | 36276 ft | 462 kts | 206° |
| 2026-04-26 10:55 | 49.79763 | 3.29530 | 36273 ft | 462 kts | 206° |
| 2026-04-26 10:56 | 49.73880 | 3.25651 | 36272 ft | 462 kts | 206° |
| 2026-04-26 10:56 | 49.67953 | 3.21755 | 36265 ft | 462 kts | 206° |
| 2026-04-26 10:57 | 49.62057 | 3.17890 | 36269 ft | 462 kts | 206° |
| 2026-04-26 10:57 | 49.57132 | 3.14668 | 36269 ft | 462 kts | 206° |
| 2026-04-26 10:58 | 49.52724 | 3.11792 | 36260 ft | 463 kts | 206° |
| 2026-04-26 10:58 | 49.46767 | 3.07959 | 36251 ft | 462 kts | 214° |
| 2026-04-26 10:59 | 49.44476 | 3.04782 | 36262 ft | 444 kts | 240° |
| 2026-04-26 10:59 | 49.43149 | 3.00500 | 36260 ft | 436 kts | 255° |
| 2026-04-26 10:59 | 49.41464 | 2.91571 | 36263 ft | 441 kts | 255° |
| 2026-04-26 11:00 | 49.39187 | 2.82764 | 36272 ft | 445 kts | 248° |
| 2026-04-26 11:00 | 49.36284 | 2.74361 | 36255 ft | 446 kts | 244° |
| 2026-04-26 11:01 | 49.33220 | 2.66055 | 36257 ft | 446 kts | 244° |
| 2026-04-26 11:01 | 49.30240 | 2.57704 | 36258 ft | 446 kts | 245° |
| 2026-04-26 11:02 | 49.27304 | 2.49371 | 36257 ft | 446 kts | 245° |
| 2026-04-26 11:02 | 49.24343 | 2.40983 | 36269 ft | 447 kts | 245° |
| 2026-04-26 11:03 | 49.22382 | 2.35447 | 36270 ft | 447 kts | 245° |
| 2026-04-26 11:03 | 49.19462 | 2.27298 | 36263 ft | 447 kts | 244° |
| 2026-04-26 11:04 | 49.16403 | 2.18999 | 36259 ft | 447 kts | 244° |
| 2026-04-26 11:04 | 49.13333 | 2.10733 | 36264 ft | 446 kts | 244° |
| 2026-04-26 11:05 | 49.10604 | 2.03446 | 36266 ft | 447 kts | 242° |
| 2026-04-26 11:05 | 49.07803 | 1.95024 | 36267 ft | 443 kts | 249° |
| 2026-04-26 11:06 | 49.05344 | 1.86415 | 36258 ft | 442 kts | 250° |
| 2026-04-26 11:06 | 49.03220 | 1.79060 | 36258 ft | 441 kts | 249° |
| 2026-04-26 11:07 | 49.00695 | 1.70593 | 36260 ft | 441 kts | 248° |
| 2026-04-26 11:07 | 48.98122 | 1.62116 | 36260 ft | 439 kts | 248° |
| 2026-04-26 11:08 | 48.95541 | 1.53676 | 36264 ft | 439 kts | 248° |
| 2026-04-26 11:08 | 48.92973 | 1.45297 | 36258 ft | 439 kts | 248° |
| 2026-04-26 11:09 | 48.90383 | 1.36862 | 36259 ft | 439 kts | 248° |
| 2026-04-26 11:09 | 48.87790 | 1.28442 | 36250 ft | 439 kts | 248° |
| 2026-04-26 11:10 | 48.85194 | 1.20036 | 36256 ft | 438 kts | 248° |
| 2026-04-26 11:10 | 48.82603 | 1.11681 | 36257 ft | 438 kts | 248° |
| 2026-04-26 11:11 | 48.79996 | 1.03307 | 36262 ft | 438 kts | 248° |
| 2026-04-26 11:11 | 48.77407 | 0.95018 | 36254 ft | 438 kts | 248° |
| 2026-04-26 11:12 | 48.74703 | 0.86703 | 36249 ft | 439 kts | 244° |
| 2026-04-26 11:12 | 48.71586 | 0.78732 | 36247 ft | 439 kts | 241° |
| 2026-04-26 11:13 | 48.68360 | 0.70959 | 36256 ft | 439 kts | 241° |
| 2026-04-26 11:13 | 48.65116 | 0.63114 | 36251 ft | 439 kts | 241° |
| 2026-04-26 11:14 | 48.61911 | 0.55290 | 36226 ft | 439 kts | 241° |
| 2026-04-26 11:14 | 48.58710 | 0.47457 | 36244 ft | 439 kts | 241° |
| 2026-04-26 11:15 | 48.55490 | 0.39593 | 36238 ft | 438 kts | 241° |
| 2026-04-26 11:15 | 48.52303 | 0.31828 | 36233 ft | 437 kts | 241° |
| 2026-04-26 11:16 | 48.49087 | 0.24033 | 36232 ft | 436 kts | 241° |
| 2026-04-26 11:16 | 48.45870 | 0.16258 | 36233 ft | 436 kts | 240° |
| 2026-04-26 11:17 | 48.42644 | 0.08483 | 36227 ft | 436 kts | 240° |
| 2026-04-26 11:17 | 48.39436 | 0.00773 | 36228 ft | 437 kts | 240° |
| 2026-04-26 11:18 | 48.36163 | -0.06919 | 36228 ft | 435 kts | 238° |
| 2026-04-26 11:18 | 48.32604 | -0.14245 | 36229 ft | 434 kts | 235° |
| 2026-04-26 11:19 | 48.28936 | -0.21476 | 36227 ft | 434 kts | 235° |
| 2026-04-26 11:19 | 48.25307 | -0.28640 | 36228 ft | 434 kts | 235° |
| 2026-04-26 11:20 | 48.22259 | -0.34601 | 36214 ft | 434 kts | 235° |
| 2026-04-26 11:20 | 48.17946 | -0.43015 | 36230 ft | 434 kts | 235° |
| 2026-04-26 11:21 | 48.15592 | -0.47605 | 36232 ft | 434 kts | 235° |
| 2026-04-26 11:21 | 48.11902 | -0.54789 | 36234 ft | 434 kts | 235° |
| 2026-04-26 11:22 | 48.08251 | -0.61883 | 36238 ft | 434 kts | 235° |
| 2026-04-26 11:22 | 48.04561 | -0.69032 | 36237 ft | 434 kts | 235° |
| 2026-04-26 11:23 | 48.00850 | -0.76204 | 36230 ft | 434 kts | 235° |
| 2026-04-26 11:23 | 47.97153 | -0.83324 | 36238 ft | 435 kts | 235° |
| 2026-04-26 11:24 | 47.93459 | -0.90429 | 36233 ft | 434 kts | 234° |
| 2026-04-26 11:24 | 47.89746 | -0.97550 | 36216 ft | 433 kts | 234° |
| 2026-04-26 11:25 | 47.86058 | -1.04600 | 36216 ft | 434 kts | 234° |
| 2026-04-26 11:25 | 47.82344 | -1.11680 | 36217 ft | 434 kts | 234° |
| 2026-04-26 11:26 | 47.78612 | -1.18779 | 36206 ft | 434 kts | 234° |
| 2026-04-26 11:26 | 47.74897 | -1.25818 | 36211 ft | 436 kts | 234° |
| 2026-04-26 11:27 | 47.71161 | -1.32894 | 36210 ft | 436 kts | 234° |
| 2026-04-26 11:27 | 47.67394 | -1.40009 | 36210 ft | 436 kts | 234° |
| 2026-04-26 11:28 | 47.63662 | -1.47034 | 36214 ft | 436 kts | 234° |
| 2026-04-26 11:28 | 47.59872 | -1.54061 | 36208 ft | 436 kts | 232° |
| 2026-04-26 11:29 | 47.55836 | -1.60824 | 36207 ft | 437 kts | 230° |
| 2026-04-26 11:29 | 47.51723 | -1.67475 | 36202 ft | 438 kts | 230° |
| 2026-04-26 11:30 | 47.48356 | -1.72947 | 36207 ft | 436 kts | 230° |
| 2026-04-26 11:30 | 47.43572 | -1.80758 | 36204 ft | 435 kts | 230° |
| 2026-04-26 11:31 | 47.39549 | -1.87326 | 36204 ft | 435 kts | 230° |
| 2026-04-26 11:31 | 47.35389 | -1.93905 | 36203 ft | 437 kts | 223° |
| 2026-04-26 11:32 | 47.30404 | -1.99073 | 36210 ft | 441 kts | 213° |
| 2026-04-26 11:32 | 47.25089 | -2.03564 | 36211 ft | 442 kts | 212° |
| 2026-04-26 11:33 | 47.19766 | -2.08075 | 36210 ft | 441 kts | 213° |
| 2026-04-26 11:33 | 47.14488 | -2.12702 | 36203 ft | 439 kts | 213° |
| 2026-04-26 11:34 | 47.09281 | -2.17320 | 36205 ft | 440 kts | 213° |
| 2026-04-26 11:34 | 47.04029 | -2.21982 | 36205 ft | 440 kts | 213° |
| 2026-04-26 11:35 | 46.98749 | -2.26657 | 36206 ft | 440 kts | 213° |
| 2026-04-26 11:35 | 46.94419 | -2.30478 | 36207 ft | 440 kts | 213° |
| 2026-04-26 11:36 | 46.88281 | -2.35877 | 36211 ft | 441 kts | 213° |
| 2026-04-26 11:36 | 46.83899 | -2.39727 | 36211 ft | 441 kts | 213° |
| 2026-04-26 11:37 | 46.77794 | -2.45085 | 36221 ft | 441 kts | 213° |
| 2026-04-26 11:37 | 46.73423 | -2.48920 | 36216 ft | 438 kts | 213° |
| 2026-04-26 11:38 | 46.68168 | -2.53511 | 36217 ft | 437 kts | 213° |
| 2026-04-26 11:38 | 46.64892 | -2.56364 | 36216 ft | 437 kts | 213° |
| 2026-04-26 11:39 | 46.59613 | -2.60955 | 36219 ft | 437 kts | 213° |
| 2026-04-26 11:39 | 46.54384 | -2.65494 | 36219 ft | 437 kts | 213° |
| 2026-04-26 11:40 | 46.49147 | -2.70026 | 36222 ft | 439 kts | 213° |
| 2026-04-26 11:40 | 46.43880 | -2.74577 | 36219 ft | 440 kts | 213° |
| 2026-04-26 11:42 | 46.22913 | -2.92648 | 36216 ft | 438 kts | 213° |
| 2026-04-26 11:43 | 46.17719 | -2.97176 | 36219 ft | 438 kts | 213° |
| 2026-04-26 11:43 | 46.12489 | -3.01730 | 36206 ft | 438 kts | 213° |
| 2026-04-26 11:44 | 46.07255 | -3.06266 | 36219 ft | 440 kts | 213° |
| 2026-04-26 11:44 | 46.01986 | -3.10822 | 36219 ft | 440 kts | 213° |
| 2026-04-26 11:45 | 45.96742 | -3.15349 | 36219 ft | 440 kts | 213° |
| 2026-04-26 11:45 | 45.91519 | -3.19851 | 36211 ft | 439 kts | 213° |
| 2026-04-26 11:46 | 45.86420 | -3.24232 | 36217 ft | 438 kts | 213° |
| 2026-04-26 11:46 | 45.81192 | -3.28709 | 36216 ft | 438 kts | 213° |
| 2026-04-26 11:47 | 45.75919 | -3.33217 | 36216 ft | 439 kts | 213° |
| 2026-04-26 11:47 | 45.70721 | -3.37651 | 36211 ft | 439 kts | 213° |
| 2026-04-26 11:48 | 45.65485 | -3.42107 | 36211 ft | 440 kts | 212° |
| 2026-04-26 11:48 | 45.60204 | -3.46595 | 36209 ft | 440 kts | 212° |
| 2026-04-26 11:49 | 45.54964 | -3.51039 | 36212 ft | 440 kts | 212° |
| 2026-04-26 11:49 | 45.49671 | -3.55521 | 36209 ft | 438 kts | 212° |
| 2026-04-26 11:50 | 45.44425 | -3.59947 | 36212 ft | 438 kts | 212° |
| 2026-04-26 11:50 | 45.39162 | -3.64375 | 36214 ft | 438 kts | 212° |
| 2026-04-26 11:51 | 45.33941 | -3.68762 | 36216 ft | 438 kts | 212° |
| 2026-04-26 11:51 | 45.28704 | -3.73151 | 36212 ft | 439 kts | 212° |
| 2026-04-26 11:52 | 45.23398 | -3.77588 | 36210 ft | 440 kts | 212° |
| 2026-04-26 11:52 | 45.19014 | -3.81250 | 36213 ft | 440 kts | 212° |
| 2026-04-26 11:53 | 45.14771 | -3.84789 | 36216 ft | 440 kts | 212° |
| 2026-04-26 11:54 | 45.06877 | -3.91355 | 36212 ft | 439 kts | 212° |
| 2026-04-26 11:54 | 45.01609 | -3.95722 | 36214 ft | 439 kts | 212° |
| 2026-04-26 11:55 | 44.96349 | -4.00072 | 36218 ft | 439 kts | 212° |
| 2026-04-26 11:55 | 44.91069 | -4.04431 | 36215 ft | 439 kts | 212° |
| 2026-04-26 11:56 | 44.85783 | -4.08782 | 36214 ft | 440 kts | 212° |
| 2026-04-26 11:56 | 44.80484 | -4.13139 | 36218 ft | 441 kts | 212° |
| 2026-04-26 11:57 | 44.75178 | -4.17494 | 36214 ft | 441 kts | 212° |
| 2026-04-26 11:57 | 44.69902 | -4.21814 | 36215 ft | 441 kts | 212° |
| 2026-04-26 11:58 | 44.64587 | -4.26155 | 36216 ft | 441 kts | 212° |
| 2026-04-26 11:58 | 44.59263 | -4.30493 | 36212 ft | 441 kts | 212° |
| 2026-04-26 11:59 | 44.53952 | -4.34813 | 36211 ft | 441 kts | 212° |
| 2026-04-26 11:59 | 44.48661 | -4.39104 | 36210 ft | 442 kts | 211° |
| 2026-04-26 12:00 | 44.43324 | -4.43426 | 36212 ft | 442 kts | 211° |
| 2026-04-26 12:00 | 44.38022 | -4.47809 | 36214 ft | 442 kts | 212° |
| 2026-04-26 12:01 | 44.32760 | -4.52283 | 36211 ft | 442 kts | 213° |
| 2026-04-26 12:01 | 44.27535 | -4.56725 | 36211 ft | 443 kts | 212° |
| 2026-04-26 12:02 | 44.22258 | -4.61189 | 36211 ft | 442 kts | 212° |
| 2026-04-26 12:02 | 44.16987 | -4.65631 | 36209 ft | 442 kts | 212° |
| 2026-04-26 12:03 | 44.11727 | -4.70046 | 36201 ft | 442 kts | 212° |
| 2026-04-26 12:03 | 44.06441 | -4.74470 | 36209 ft | 443 kts | 212° |
| 2026-04-26 12:04 | 44.01186 | -4.78865 | 36205 ft | 443 kts | 212° |
| 2026-04-26 12:04 | 43.95894 | -4.83284 | 36203 ft | 443 kts | 212° |
| 2026-04-26 12:05 | 43.90599 | -4.87696 | 36201 ft | 443 kts | 212° |
| 2026-04-26 12:05 | 43.85295 | -4.92101 | 36202 ft | 444 kts | 212° |
| 2026-04-26 12:06 | 43.80027 | -4.96471 | 36204 ft | 444 kts | 212° |
| 2026-04-26 12:06 | 43.74707 | -5.00880 | 36204 ft | 443 kts | 212° |
| 2026-04-26 12:07 | 43.69407 | -5.05255 | 36208 ft | 443 kts | 212° |
| 2026-04-26 12:07 | 43.64126 | -5.09601 | 36199 ft | 445 kts | 212° |
| 2026-04-26 12:08 | 43.58804 | -5.13980 | 36213 ft | 445 kts | 212° |
| 2026-04-26 12:08 | 43.53480 | -5.18353 | 36196 ft | 445 kts | 212° |
| 2026-04-26 12:09 | 43.48174 | -5.22698 | 36200 ft | 446 kts | 212° |
| 2026-04-26 12:09 | 43.43724 | -5.26334 | 36192 ft | 447 kts | 212° |
| 2026-04-26 12:10 | 43.39369 | -5.29889 | 36199 ft | 447 kts | 212° |
| 2026-04-26 12:10 | 43.34024 | -5.34246 | 36197 ft | 446 kts | 212° |
| 2026-04-26 12:11 | 43.28734 | -5.38550 | 36186 ft | 445 kts | 211° |
| 2026-04-26 12:11 | 43.23356 | -5.42906 | 36180 ft | 447 kts | 211° |
| 2026-04-26 12:12 | 43.17986 | -5.47252 | 36188 ft | 447 kts | 211° |
| 2026-04-26 12:12 | 43.12651 | -5.51565 | 36185 ft | 448 kts | 211° |
| 2026-04-26 12:13 | 43.07285 | -5.55893 | 36171 ft | 447 kts | 211° |
| 2026-04-26 12:13 | 43.01909 | -5.60217 | 36172 ft | 448 kts | 211° |
| 2026-04-26 12:14 | 42.96531 | -5.64535 | 36167 ft | 448 kts | 211° |
| 2026-04-26 12:14 | 42.91142 | -5.68855 | 36175 ft | 448 kts | 211° |
| 2026-04-26 12:15 | 42.85791 | -5.73134 | 36168 ft | 448 kts | 211° |
| 2026-04-26 12:15 | 42.80407 | -5.77431 | 36170 ft | 448 kts | 211° |
| 2026-04-26 12:16 | 42.75050 | -5.81698 | 36176 ft | 448 kts | 211° |
| 2026-04-26 12:16 | 42.69666 | -5.85977 | 36177 ft | 448 kts | 211° |
| 2026-04-26 12:17 | 42.64276 | -5.90252 | 36177 ft | 448 kts | 211° |
| 2026-04-26 12:17 | 42.59789 | -5.93803 | 36166 ft | 448 kts | 211° |
| 2026-04-26 12:18 | 42.54430 | -5.98039 | 36166 ft | 448 kts | 211° |
| 2026-04-26 12:18 | 42.49030 | -6.02298 | 36159 ft | 448 kts | 211° |
| 2026-04-26 12:19 | 42.43624 | -6.06553 | 36153 ft | 448 kts | 211° |
| 2026-04-26 12:19 | 42.38263 | -6.10762 | 36152 ft | 449 kts | 211° |
| 2026-04-26 12:20 | 42.32861 | -6.15002 | 36147 ft | 447 kts | 211° |
| 2026-04-26 12:20 | 42.27473 | -6.19217 | 36144 ft | 447 kts | 211° |
| 2026-04-26 12:21 | 42.22107 | -6.23404 | 36142 ft | 447 kts | 211° |
| 2026-04-26 12:21 | 42.16710 | -6.27607 | 36146 ft | 448 kts | 211° |
| 2026-04-26 12:22 | 42.11295 | -6.31819 | 36140 ft | 448 kts | 211° |
| 2026-04-26 12:22 | 42.05907 | -6.36002 | 36143 ft | 449 kts | 211° |
| 2026-04-26 12:23 | 42.00498 | -6.40193 | 36133 ft | 448 kts | 211° |
| 2026-04-26 12:23 | 41.95067 | -6.44389 | 36137 ft | 449 kts | 211° |
| 2026-04-26 12:24 | 41.89647 | -6.48571 | 36137 ft | 449 kts | 211° |
| 2026-04-26 12:24 | 41.84219 | -6.52754 | 36132 ft | 449 kts | 211° |
| 2026-04-26 12:25 | 41.76106 | -6.58985 | 36125 ft | 449 kts | 211° |
| 2026-04-26 12:25 | 41.70668 | -6.63121 | 36127 ft | 450 kts | 209° |
| 2026-04-26 12:26 | 41.65399 | -6.67645 | 36123 ft | 449 kts | 216° |
| 2026-04-26 12:26 | 41.62138 | -6.70793 | 36118 ft | 449 kts | 217° |
| 2026-04-26 12:27 | 41.57091 | -6.75662 | 36114 ft | 449 kts | 216° |
| 2026-04-26 12:27 | 41.51972 | -6.80473 | 36118 ft | 450 kts | 216° |
| 2026-04-26 12:28 | 41.46822 | -6.85235 | 36116 ft | 450 kts | 215° |
| 2026-04-26 12:28 | 41.41702 | -6.89947 | 36114 ft | 448 kts | 215° |
| 2026-04-26 12:29 | 41.36561 | -6.94669 | 36111 ft | 448 kts | 215° |
| 2026-04-26 12:30 | 41.28888 | -7.01698 | 36112 ft | 449 kts | 215° |
| 2026-04-26 12:30 | 41.23723 | -7.06424 | 36113 ft | 449 kts | 215° |
| 2026-04-26 12:31 | 41.15981 | -7.13492 | 36112 ft | 449 kts | 215° |
| 2026-04-26 12:31 | 41.10829 | -7.18183 | 36110 ft | 449 kts | 215° |
| 2026-04-26 12:32 | 41.05698 | -7.22845 | 36111 ft | 449 kts | 215° |
| 2026-04-26 12:33 | 40.97975 | -7.29851 | 36111 ft | 447 kts | 215° |
| 2026-04-26 12:33 | 40.92828 | -7.34504 | 36109 ft | 447 kts | 215° |
| 2026-04-26 12:34 | 40.87676 | -7.39152 | 36106 ft | 447 kts | 215° |
| 2026-04-26 12:34 | 40.82555 | -7.43764 | 36108 ft | 448 kts | 215° |
| 2026-04-26 12:35 | 40.77399 | -7.48399 | 36108 ft | 448 kts | 215° |
| 2026-04-26 12:35 | 40.72241 | -7.53029 | 36107 ft | 448 kts | 215° |
| 2026-04-26 12:36 | 40.67110 | -7.57626 | 36108 ft | 448 kts | 215° |
| 2026-04-26 12:36 | 40.61940 | -7.62247 | 36104 ft | 448 kts | 215° |
| 2026-04-26 12:37 | 40.56777 | -7.66856 | 36105 ft | 448 kts | 215° |
| 2026-04-26 12:37 | 40.51649 | -7.71423 | 36106 ft | 448 kts | 215° |
| 2026-04-26 12:38 | 40.46485 | -7.76013 | 36104 ft | 448 kts | 215° |
| 2026-04-26 12:38 | 40.41312 | -7.80604 | 36225 ft | 447 kts | 215° |
| 2026-04-26 12:38 | 40.38753 | -7.82865 | 36727 ft | 437 kts | 215° |
| 2026-04-26 12:39 | 40.36241 | -7.85062 | 37054 ft | 432 kts | 214° |
| 2026-04-26 12:39 | 40.31267 | -7.89374 | 37106 ft | 432 kts | 214° |
| 2026-04-26 12:40 | 40.26222 | -7.93789 | 37102 ft | 438 kts | 215° |
| 2026-04-26 12:40 | 40.21150 | -7.98275 | 37105 ft | 442 kts | 215° |
| 2026-04-26 12:41 | 40.16046 | -8.02797 | 37104 ft | 446 kts | 215° |
| 2026-04-26 12:41 | 40.10916 | -8.07328 | 37100 ft | 446 kts | 215° |
| 2026-04-26 12:42 | 40.05743 | -8.11867 | 37096 ft | 445 kts | 215° |
| 2026-04-26 12:42 | 40.00590 | -8.16370 | 37088 ft | 445 kts | 215° |
| 2026-04-26 12:43 | 39.95467 | -8.20838 | 37091 ft | 445 kts | 215° |
| 2026-04-26 12:43 | 39.90298 | -8.25339 | 37091 ft | 446 kts | 215° |
| 2026-04-26 12:44 | 39.85134 | -8.29829 | 37092 ft | 446 kts | 215° |
| 2026-04-26 12:44 | 39.80005 | -8.34281 | 37089 ft | 445 kts | 215° |
| 2026-04-26 12:45 | 39.74841 | -8.38757 | 37090 ft | 445 kts | 215° |
| 2026-04-26 12:45 | 39.69690 | -8.43212 | 37086 ft | 444 kts | 215° |
| 2026-04-26 12:46 | 39.64581 | -8.47621 | 37086 ft | 444 kts | 215° |
| 2026-04-26 12:46 | 39.59423 | -8.52064 | 37087 ft | 444 kts | 214° |
| 2026-04-26 12:47 | 39.54265 | -8.56500 | 37088 ft | 444 kts | 214° |
| 2026-04-26 12:47 | 39.49105 | -8.60929 | 37084 ft | 444 kts | 214° |
| 2026-04-26 12:48 | 39.43977 | -8.65323 | 37093 ft | 444 kts | 215° |
| 2026-04-26 12:48 | 39.38815 | -8.69739 | 37085 ft | 445 kts | 215° |
| 2026-04-26 12:49 | 39.33678 | -8.74127 | 37083 ft | 444 kts | 215° |
| 2026-04-26 12:49 | 39.28512 | -8.78532 | 37084 ft | 443 kts | 215° |
| 2026-04-26 12:50 | 39.23362 | -8.82912 | 37083 ft | 443 kts | 215° |
| 2026-04-26 12:50 | 39.19946 | -8.85812 | 37088 ft | 443 kts | 215° |
| 2026-04-26 12:51 | 39.14906 | -8.90087 | 37089 ft | 444 kts | 215° |
| 2026-04-26 12:51 | 39.09772 | -8.94434 | 37092 ft | 444 kts | 215° |
| 2026-04-26 12:52 | 39.04599 | -8.98807 | 37083 ft | 444 kts | 215° |
| 2026-04-26 12:52 | 38.99436 | -9.03164 | 37078 ft | 444 kts | 215° |
| 2026-04-26 12:53 | 38.94254 | -9.07527 | 37077 ft | 444 kts | 215° |
| 2026-04-26 12:53 | 38.89110 | -9.11854 | 37071 ft | 444 kts | 215° |
| 2026-04-26 12:54 | 38.83945 | -9.16191 | 37069 ft | 443 kts | 215° |
| 2026-04-26 12:54 | 38.78767 | -9.20529 | 37086 ft | 443 kts | 215° |
| 2026-04-26 12:55 | 38.73601 | -9.24849 | 37081 ft | 443 kts | 214° |
| 2026-04-26 12:55 | 38.68435 | -9.29161 | 37062 ft | 443 kts | 214° |
| 2026-04-26 12:56 | 38.63256 | -9.33478 | 37099 ft | 443 kts | 214° |
| 2026-04-26 12:56 | 38.58109 | -9.37760 | 37098 ft | 443 kts | 214° |
| 2026-04-26 12:57 | 38.52938 | -9.42055 | 37106 ft | 443 kts | 214° |
| 2026-04-26 12:57 | 38.47752 | -9.46355 | 37097 ft | 443 kts | 214° |
| 2026-04-26 12:58 | 38.40035 | -9.52744 | 37103 ft | 441 kts | 214° |
| 2026-04-26 12:58 | 38.34888 | -9.56991 | 37100 ft | 440 kts | 214° |
| 2026-04-26 12:59 | 38.31571 | -9.59724 | 37093 ft | 440 kts | 214° |
| 2026-04-26 12:59 | 38.26450 | -9.63938 | 37099 ft | 441 kts | 214° |
| 2026-04-26 13:00 | 38.21284 | -9.68181 | 37104 ft | 442 kts | 214° |
| 2026-04-26 13:00 | 38.16975 | -9.71715 | 37113 ft | 442 kts | 214° |
| 2026-04-26 13:01 | 38.10976 | -9.76631 | 37112 ft | 443 kts | 214° |
| 2026-04-26 13:01 | 38.06653 | -9.80167 | 37111 ft | 443 kts | 214° |
| 2026-04-26 13:02 | 38.01462 | -9.84406 | 37113 ft | 443 kts | 214° |
| 2026-04-26 13:02 | 37.96301 | -9.88619 | 37109 ft | 440 kts | 214° |
| 2026-04-26 13:03 | 37.91147 | -9.92811 | 37108 ft | 440 kts | 214° |
| 2026-04-26 13:03 | 37.86026 | -9.96967 | 37110 ft | 440 kts | 214° |
| 2026-04-26 13:04 | 37.80864 | -10.01152 | 37116 ft | 440 kts | 214° |
| 2026-04-26 13:04 | 37.75701 | -10.05332 | 37098 ft | 439 kts | 214° |
| 2026-04-26 13:05 | 37.70560 | -10.09485 | 37113 ft | 440 kts | 213° |
| 2026-04-26 13:05 | 37.65390 | -10.13656 | 37107 ft | 441 kts | 213° |
| 2026-04-26 13:06 | 37.60259 | -10.17791 | 37100 ft | 440 kts | 213° |
| 2026-04-26 13:06 | 37.55083 | -10.21954 | 37109 ft | 440 kts | 213° |
| 2026-04-26 13:07 | 37.49932 | -10.26095 | 37116 ft | 438 kts | 213° |
| 2026-04-26 13:07 | 37.44810 | -10.30197 | 37115 ft | 438 kts | 213° |
| 2026-04-26 13:08 | 37.39655 | -10.34319 | 37114 ft | 438 kts | 213° |
| 2026-04-26 13:08 | 37.34490 | -10.38445 | 37108 ft | 438 kts | 213° |
| 2026-04-26 13:09 | 37.29375 | -10.42525 | 37109 ft | 438 kts | 213° |
| 2026-04-26 13:09 | 37.24211 | -10.46637 | 37107 ft | 438 kts | 213° |
| 2026-04-26 13:10 | 37.19071 | -10.50720 | 37115 ft | 439 kts | 213° |
| 2026-04-26 13:10 | 37.13892 | -10.54831 | 37110 ft | 440 kts | 213° |
| 2026-04-26 13:11 | 37.08713 | -10.58936 | 37112 ft | 440 kts | 213° |
| 2026-04-26 13:11 | 37.03549 | -10.63025 | 37112 ft | 439 kts | 213° |
| 2026-04-26 13:12 | 36.98408 | -10.67084 | 37108 ft | 438 kts | 213° |
| 2026-04-26 13:12 | 36.93225 | -10.71167 | 37107 ft | 439 kts | 213° |
| 2026-04-26 13:13 | 36.88078 | -10.75219 | 37114 ft | 439 kts | 213° |
| 2026-04-26 13:13 | 36.82898 | -10.79291 | 37109 ft | 439 kts | 212° |
| 2026-04-26 13:14 | 36.77715 | -10.83358 | 37111 ft | 439 kts | 212° |
| 2026-04-26 13:14 | 36.72552 | -10.87402 | 37108 ft | 439 kts | 212° |
| 2026-04-26 13:15 | 36.67376 | -10.91452 | 37107 ft | 439 kts | 212° |
| 2026-04-26 13:15 | 36.62200 | -10.95493 | 37111 ft | 439 kts | 212° |
| 2026-04-26 13:16 | 36.57056 | -10.99505 | 37103 ft | 438 kts | 212° |
| 2026-04-26 13:16 | 36.51874 | -11.03537 | 37106 ft | 438 kts | 212° |
| 2026-04-26 13:17 | 36.44125 | -11.09557 | 37102 ft | 437 kts | 212° |
| 2026-04-26 13:18 | 36.36395 | -11.15546 | 37104 ft | 437 kts | 212° |
| 2026-04-26 13:19 | 36.28637 | -11.21545 | 37106 ft | 437 kts | 212° |
| 2026-04-26 13:19 | 36.23460 | -11.25539 | 37110 ft | 437 kts | 212° |
| 2026-04-26 13:20 | 36.18307 | -11.29507 | 37102 ft | 438 kts | 212° |
| 2026-04-26 13:20 | 36.13125 | -11.33492 | 37108 ft | 438 kts | 212° |
| 2026-04-26 13:21 | 36.07978 | -11.37449 | 37105 ft | 437 kts | 212° |
| 2026-04-26 13:21 | 36.02810 | -11.41412 | 37097 ft | 437 kts | 212° |
| 2026-04-26 13:22 | 35.97637 | -11.45372 | 37096 ft | 437 kts | 212° |
| 2026-04-26 13:22 | 35.92633 | -11.49565 | 37102 ft | 437 kts | 215° |
| 2026-04-26 13:23 | 35.87688 | -11.53978 | 37088 ft | 438 kts | 216° |
| 2026-04-26 13:23 | 35.82739 | -11.58389 | 37090 ft | 437 kts | 215° |
| 2026-04-26 13:24 | 35.77808 | -11.62732 | 37090 ft | 438 kts | 215° |
| 2026-04-26 13:24 | 35.72838 | -11.67080 | 37097 ft | 438 kts | 215° |
| 2026-04-26 13:25 | 35.67894 | -11.71396 | 37098 ft | 438 kts | 215° |
| 2026-04-26 13:25 | 35.62903 | -11.75745 | 37099 ft | 438 kts | 215° |
| 2026-04-26 13:26 | 35.57949 | -11.80056 | 37099 ft | 439 kts | 214° |
| 2026-04-26 13:26 | 35.52962 | -11.84392 | 37103 ft | 439 kts | 214° |
| 2026-04-26 13:27 | 35.47971 | -11.88725 | 37091 ft | 438 kts | 215° |
| 2026-04-26 13:27 | 35.43000 | -11.93034 | 37099 ft | 438 kts | 214° |
| 2026-04-26 13:28 | 35.38006 | -11.97354 | 37101 ft | 439 kts | 214° |
| 2026-04-26 13:28 | 35.33015 | -12.01665 | 37096 ft | 439 kts | 214° |
| 2026-04-26 13:29 | 35.28051 | -12.05947 | 37101 ft | 439 kts | 214° |
| 2026-04-26 13:29 | 35.23044 | -12.10259 | 37085 ft | 439 kts | 214° |
| 2026-04-26 13:30 | 35.18074 | -12.14533 | 37092 ft | 439 kts | 214° |
| 2026-04-26 13:30 | 35.13063 | -12.18836 | 37088 ft | 439 kts | 214° |
| 2026-04-26 13:31 | 35.08054 | -12.23129 | 37098 ft | 440 kts | 214° |
| 2026-04-26 13:31 | 35.03068 | -12.27398 | 37092 ft | 439 kts | 214° |
| 2026-04-26 13:32 | 34.98049 | -12.31688 | 37084 ft | 440 kts | 214° |
| 2026-04-26 13:32 | 34.93060 | -12.35945 | 37092 ft | 440 kts | 214° |
| 2026-04-26 13:33 | 34.88040 | -12.40223 | 37089 ft | 440 kts | 214° |
| 2026-04-26 13:33 | 34.83010 | -12.44502 | 37083 ft | 440 kts | 214° |
| 2026-04-26 13:34 | 34.77985 | -12.48770 | 37093 ft | 440 kts | 214° |
| 2026-04-26 13:34 | 34.72989 | -12.53007 | 37089 ft | 441 kts | 213° |
| 2026-04-26 13:35 | 34.67959 | -12.57268 | 37090 ft | 440 kts | 213° |
| 2026-04-26 13:35 | 34.62926 | -12.61526 | 37089 ft | 440 kts | 214° |
| 2026-04-26 13:36 | 34.57889 | -12.65779 | 37088 ft | 440 kts | 213° |
| 2026-04-26 13:36 | 34.52884 | -12.69996 | 37084 ft | 441 kts | 213° |
| 2026-04-26 13:37 | 34.47846 | -12.74237 | 37093 ft | 441 kts | 214° |
| 2026-04-26 13:37 | 34.42807 | -12.78476 | 37097 ft | 440 kts | 213° |
| 2026-04-26 13:38 | 34.37767 | -12.82708 | 37091 ft | 439 kts | 213° |
| 2026-04-26 13:38 | 34.32768 | -12.86894 | 37090 ft | 440 kts | 213° |
| 2026-04-26 13:39 | 34.27724 | -12.91114 | 37090 ft | 440 kts | 213° |
| 2026-04-26 13:39 | 34.22727 | -12.95315 | 37086 ft | 439 kts | 213° |
| 2026-04-26 13:40 | 34.17700 | -12.99559 | 37081 ft | 439 kts | 213° |
| 2026-04-26 13:40 | 34.12688 | -13.03783 | 37082 ft | 440 kts | 213° |
| 2026-04-26 13:41 | 34.07675 | -13.08001 | 37091 ft | 440 kts | 213° |
| 2026-04-26 13:41 | 34.02652 | -13.12221 | 37079 ft | 439 kts | 213° |
| 2026-04-26 13:42 | 33.97650 | -13.16413 | 37074 ft | 440 kts | 213° |
| 2026-04-26 13:42 | 33.92621 | -13.20623 | 37078 ft | 440 kts | 213° |
| 2026-04-26 13:43 | 33.87581 | -13.24836 | 37090 ft | 440 kts | 213° |
| 2026-04-26 13:43 | 33.82574 | -13.29018 | 37089 ft | 440 kts | 213° |
| 2026-04-26 13:44 | 33.77534 | -13.33220 | 37085 ft | 439 kts | 213° |
| 2026-04-26 13:44 | 33.72494 | -13.37413 | 37084 ft | 440 kts | 213° |
| 2026-04-26 13:45 | 33.67497 | -13.41567 | 37083 ft | 439 kts | 214° |
| 2026-04-26 13:45 | 33.62462 | -13.45747 | 37080 ft | 439 kts | 214° |
| 2026-04-26 13:46 | 33.57424 | -13.49922 | 37088 ft | 438 kts | 214° |
| 2026-04-26 13:46 | 33.52427 | -13.54055 | 37084 ft | 439 kts | 214° |
| 2026-04-26 13:47 | 33.47400 | -13.58208 | 37085 ft | 439 kts | 214° |
| 2026-04-26 13:47 | 33.42366 | -13.62363 | 37066 ft | 439 kts | 214° |
| 2026-04-26 13:48 | 33.37335 | -13.66511 | 37081 ft | 438 kts | 214° |
| 2026-04-26 13:48 | 33.32343 | -13.70617 | 37076 ft | 438 kts | 214° |
| 2026-04-26 13:49 | 33.27316 | -13.74745 | 37083 ft | 439 kts | 214° |
| 2026-04-26 13:49 | 33.22282 | -13.78876 | 37076 ft | 439 kts | 214° |
| 2026-04-26 13:50 | 33.17276 | -13.82980 | 37070 ft | 438 kts | 214° |
| 2026-04-26 13:50 | 33.13053 | -13.86426 | 37093 ft | 438 kts | 214° |
| 2026-04-26 13:51 | 33.08033 | -13.90498 | 37070 ft | 439 kts | 214° |
| 2026-04-26 13:51 | 33.02962 | -13.94606 | 37066 ft | 439 kts | 214° |
| 2026-04-26 13:52 | 32.97923 | -13.98686 | 37082 ft | 439 kts | 214° |
| 2026-04-26 13:52 | 32.92868 | -14.02772 | 37086 ft | 439 kts | 214° |
| 2026-04-26 13:53 | 32.87798 | -14.06863 | 37056 ft | 440 kts | 214° |
| 2026-04-26 13:53 | 32.82764 | -14.10922 | 37073 ft | 439 kts | 214° |
| 2026-04-26 13:54 | 32.77693 | -14.15005 | 37078 ft | 439 kts | 214° |
| 2026-04-26 13:54 | 32.72661 | -14.19050 | 37074 ft | 439 kts | 214° |
| 2026-04-26 13:55 | 32.65912 | -14.24464 | 37068 ft | 439 kts | 214° |
| 2026-04-26 13:56 | 32.57472 | -14.31224 | 37080 ft | 439 kts | 214° |
| 2026-04-26 13:56 | 32.52397 | -14.35282 | 37061 ft | 439 kts | 214° |
| 2026-04-26 13:57 | 32.47355 | -14.39305 | 37069 ft | 439 kts | 214° |
| 2026-04-26 13:57 | 32.42273 | -14.43356 | 37082 ft | 439 kts | 214° |
| 2026-04-26 13:58 | 32.37230 | -14.47372 | 37081 ft | 439 kts | 214° |
| 2026-04-26 13:58 | 32.32148 | -14.51412 | 37065 ft | 439 kts | 214° |
| 2026-04-26 13:59 | 32.28883 | -14.54005 | 37073 ft | 439 kts | 214° |
| 2026-04-26 13:59 | 32.23840 | -14.58006 | 37085 ft | 438 kts | 214° |
| 2026-04-26 14:00 | 32.13689 | -14.66039 | 37090 ft | 439 kts | 214° |
| 2026-04-26 14:01 | 32.08620 | -14.70044 | 37080 ft | 438 kts | 214° |
| 2026-04-26 14:01 | 32.03574 | -14.74024 | 37069 ft | 438 kts | 214° |
| 2026-04-26 14:02 | 31.98490 | -14.78030 | 37072 ft | 438 kts | 214° |
| 2026-04-26 14:02 | 31.93412 | -14.82026 | 37071 ft | 438 kts | 214° |
| 2026-04-26 14:03 | 31.88375 | -14.85983 | 37077 ft | 438 kts | 214° |
| 2026-04-26 14:03 | 31.83296 | -14.89968 | 37075 ft | 438 kts | 214° |
| 2026-04-26 14:04 | 31.78221 | -14.93944 | 37088 ft | 438 kts | 214° |
| 2026-04-26 14:04 | 31.73148 | -14.97914 | 37079 ft | 438 kts | 214° |
| 2026-04-26 14:05 | 31.68101 | -15.01860 | 37085 ft | 437 kts | 214° |
| 2026-04-26 14:05 | 31.63051 | -15.05802 | 37067 ft | 437 kts | 214° |
| 2026-04-26 14:06 | 31.57977 | -15.09756 | 37071 ft | 437 kts | 214° |
| 2026-04-26 14:06 | 31.52934 | -15.13681 | 37081 ft | 437 kts | 214° |
| 2026-04-26 14:07 | 31.47871 | -15.17616 | 37060 ft | 437 kts | 214° |
| 2026-04-26 14:07 | 31.42798 | -15.21554 | 37062 ft | 437 kts | 214° |
| 2026-04-26 14:08 | 31.37718 | -15.25493 | 37074 ft | 437 kts | 214° |
| 2026-04-26 14:08 | 31.32638 | -15.29427 | 37078 ft | 437 kts | 214° |
| 2026-04-26 14:09 | 31.27216 | -15.32491 | 37073 ft | 438 kts | 198° |
| 2026-04-26 14:09 | 31.21355 | -15.34529 | 37066 ft | 439 kts | 199° |
| 2026-04-26 14:10 | 31.15565 | -15.36708 | 37067 ft | 439 kts | 200° |
| 2026-04-26 14:10 | 31.09771 | -15.38992 | 37072 ft | 439 kts | 200° |
| 2026-04-26 14:11 | 31.01130 | -15.42448 | 37070 ft | 438 kts | 200° |
| 2026-04-26 14:11 | 30.95361 | -15.44760 | 37067 ft | 438 kts | 200° |
| 2026-04-26 14:12 | 30.89579 | -15.47076 | 37069 ft | 438 kts | 200° |
| 2026-04-26 14:12 | 30.83808 | -15.49385 | 37068 ft | 438 kts | 201° |
| 2026-04-26 14:13 | 30.75212 | -15.52821 | 37067 ft | 435 kts | 200° |
| 2026-04-26 14:14 | 30.69473 | -15.55109 | 37068 ft | 435 kts | 200° |
| 2026-04-26 14:14 | 30.63736 | -15.57393 | 37069 ft | 435 kts | 200° |
| 2026-04-26 14:15 | 30.58031 | -15.59663 | 37069 ft | 435 kts | 200° |
| 2026-04-26 14:15 | 30.52283 | -15.61947 | 37064 ft | 436 kts | 201° |
| 2026-04-26 14:16 | 30.46572 | -15.64214 | 37067 ft | 436 kts | 201° |
| 2026-04-26 14:16 | 30.40833 | -15.66488 | 37065 ft | 436 kts | 201° |
| 2026-04-26 14:17 | 30.35082 | -15.68765 | 37066 ft | 436 kts | 201° |
| 2026-04-26 14:17 | 30.29317 | -15.71045 | 37061 ft | 436 kts | 201° |
| 2026-04-26 14:18 | 30.23599 | -15.73302 | 37057 ft | 436 kts | 201° |
| 2026-04-26 14:18 | 30.17842 | -15.75573 | 37058 ft | 437 kts | 201° |
| 2026-04-26 14:19 | 30.12085 | -15.77841 | 37057 ft | 437 kts | 201° |
| 2026-04-26 14:19 | 30.06362 | -15.80093 | 37061 ft | 437 kts | 201° |
| 2026-04-26 14:20 | 30.00601 | -15.82357 | 37061 ft | 437 kts | 201° |
| 2026-04-26 14:20 | 29.94873 | -15.84606 | 37060 ft | 436 kts | 201° |
| 2026-04-26 14:21 | 29.89116 | -15.86863 | 37061 ft | 436 kts | 201° |
| 2026-04-26 14:21 | 29.83365 | -15.89114 | 37061 ft | 436 kts | 201° |
| 2026-04-26 14:22 | 29.77654 | -15.91347 | 37059 ft | 436 kts | 201° |
| 2026-04-26 14:22 | 29.71913 | -15.93589 | 36966 ft | 435 kts | 201° |
| 2026-04-26 14:22 | 29.69041 | -15.94710 | 36517 ft | 435 kts | 201° |
| 2026-04-26 14:23 | 29.66166 | -15.95835 | 35988 ft | 436 kts | 201° |
| 2026-04-26 14:23 | 29.63292 | -15.96964 | 35474 ft | 437 kts | 201° |
| 2026-04-26 14:23 | 29.60438 | -15.98087 | 34971 ft | 439 kts | 200° |
| 2026-04-26 14:23 | 29.57544 | -15.99228 | 34479 ft | 440 kts | 200° |
| 2026-04-26 14:24 | 29.54634 | -16.00374 | 33990 ft | 441 kts | 200° |
| 2026-04-26 14:24 | 29.51731 | -16.01518 | 33426 ft | 442 kts | 200° |
| 2026-04-26 14:24 | 29.48809 | -16.02668 | 32869 ft | 444 kts | 200° |
| 2026-04-26 14:24 | 29.45879 | -16.03822 | 32326 ft | 446 kts | 200° |
| 2026-04-26 14:25 | 29.42928 | -16.04985 | 31779 ft | 448 kts | 200° |
| 2026-04-26 14:25 | 29.39971 | -16.06149 | 31259 ft | 449 kts | 200° |
| 2026-04-26 14:25 | 29.37046 | -16.07301 | 30743 ft | 451 kts | 200° |
| 2026-04-26 14:25 | 29.34066 | -16.08473 | 30247 ft | 452 kts | 200° |
| 2026-04-26 14:26 | 29.31087 | -16.09645 | 29666 ft | 451 kts | 199° |
| 2026-04-26 14:26 | 29.28122 | -16.10806 | 29099 ft | 448 kts | 199° |
| 2026-04-26 14:26 | 29.25178 | -16.11976 | 28522 ft | 444 kts | 202° |
| 2026-04-26 14:26 | 29.22471 | -16.13629 | 27974 ft | 439 kts | 212° |
| 2026-04-26 14:27 | 29.19915 | -16.15435 | 27435 ft | 436 kts | 211° |
| 2026-04-26 14:27 | 29.17305 | -16.17223 | 26895 ft | 433 kts | 211° |
| 2026-04-26 14:27 | 29.14701 | -16.18961 | 26362 ft | 430 kts | 210° |
| 2026-04-26 14:27 | 29.13861 | -16.19515 | 26201 ft | 429 kts | 210° |
| 2026-04-26 14:28 | 29.11409 | -16.21121 | 25720 ft | 426 kts | 210° |
| 2026-04-26 14:28 | 29.08845 | -16.22785 | 25229 ft | 423 kts | 210° |
| 2026-04-26 14:28 | 29.06274 | -16.24443 | 24722 ft | 421 kts | 210° |
| 2026-04-26 14:28 | 29.03731 | -16.26082 | 24243 ft | 418 kts | 209° |
| 2026-04-26 14:29 | 29.01197 | -16.27710 | 23758 ft | 416 kts | 209° |
| 2026-04-26 14:29 | 28.98679 | -16.29326 | 23212 ft | 413 kts | 209° |
| 2026-04-26 14:29 | 28.96186 | -16.30926 | 22654 ft | 409 kts | 209° |
| 2026-04-26 14:29 | 28.93704 | -16.32516 | 22111 ft | 408 kts | 209° |
| 2026-04-26 14:30 | 28.91267 | -16.34076 | 21569 ft | 405 kts | 209° |
| 2026-04-26 14:30 | 28.88820 | -16.35643 | 21055 ft | 402 kts | 209° |
| 2026-04-26 14:30 | 28.86377 | -16.37203 | 20533 ft | 406 kts | 209° |
| 2026-04-26 14:30 | 28.83831 | -16.38845 | 20001 ft | 432 kts | 210° |
| 2026-04-26 14:31 | 28.81185 | -16.40591 | 19479 ft | 443 kts | 210° |
| 2026-04-26 14:31 | 28.78546 | -16.42337 | 18989 ft | 445 kts | 210° |
| 2026-04-26 14:31 | 28.75868 | -16.44097 | 18501 ft | 442 kts | 210° |
| 2026-04-26 14:31 | 28.73196 | -16.45832 | 17968 ft | 440 kts | 210° |
| 2026-04-26 14:32 | 28.70534 | -16.47545 | 17419 ft | 438 kts | 210° |
| 2026-04-26 14:32 | 28.67885 | -16.49243 | 16888 ft | 435 kts | 209° |
| 2026-04-26 14:32 | 28.65245 | -16.50928 | 16360 ft | 433 kts | 209° |
| 2026-04-26 14:32 | 28.62656 | -16.52578 | 15848 ft | 431 kts | 209° |
| 2026-04-26 14:33 | 28.60044 | -16.54241 | 15335 ft | 428 kts | 209° |
| 2026-04-26 14:33 | 28.57441 | -16.55895 | 14833 ft | 426 kts | 209° |
| 2026-04-26 14:33 | 28.54854 | -16.57538 | 14339 ft | 424 kts | 209° |
| 2026-04-26 14:33 | 28.52310 | -16.59153 | 13855 ft | 422 kts | 209° |
| 2026-04-26 14:34 | 28.49746 | -16.60780 | 13300 ft | 420 kts | 209° |
| 2026-04-26 14:34 | 28.47203 | -16.62395 | 12766 ft | 416 kts | 209° |
| 2026-04-26 14:34 | 28.44684 | -16.63993 | 12239 ft | 413 kts | 209° |
| 2026-04-26 14:34 | 28.42185 | -16.65577 | 11723 ft | 410 kts | 209° |
| 2026-04-26 14:35 | 28.39700 | -16.67149 | 11212 ft | 407 kts | 209° |
| 2026-04-26 14:35 | 28.37236 | -16.68708 | 10712 ft | 404 kts | 209° |
| 2026-04-26 14:35 | 28.34782 | -16.70259 | 10227 ft | 402 kts | 209° |
| 2026-04-26 14:35 | 28.32365 | -16.71783 | 9721 ft | 400 kts | 209° |
| 2026-04-26 14:36 | 28.29936 | -16.73318 | 9180 ft | 397 kts | 209° |
| 2026-04-26 14:36 | 28.27537 | -16.74834 | 8647 ft | 395 kts | 209° |
| 2026-04-26 14:36 | 28.25179 | -16.76319 | 8118 ft | 369 kts | 208° |
| 2026-04-26 14:36 | 28.23032 | -16.77629 | 7474 ft | 333 kts | 207° |
| 2026-04-26 14:37 | 28.21051 | -16.78788 | 6865 ft | 307 kts | 206° |
| 2026-04-26 14:37 | 28.19212 | -16.79839 | 6338 ft | 285 kts | 206° |
| 2026-04-26 14:37 | 28.17514 | -16.80804 | 5802 ft | 269 kts | 206° |
| 2026-04-26 14:37 | 28.15865 | -16.81781 | 5257 ft | 268 kts | 208° |
| 2026-04-26 14:38 | 28.14222 | -16.82801 | 4699 ft | 269 kts | 209° |
| 2026-04-26 14:38 | 28.12579 | -16.83823 | 4136 ft | 269 kts | 209° |
| 2026-04-26 14:38 | 28.10934 | -16.84847 | 3571 ft | 269 kts | 209° |
| 2026-04-26 14:38 | 28.09845 | -16.85521 | 3260 ft | 274 kts | 209° |
| 2026-04-26 14:39 | 28.07519 | -16.86989 | 2990 ft | 299 kts | 210° |
| 2026-04-26 14:39 | 28.05748 | -16.88163 | 2984 ft | 318 kts | 212° |
| 2026-04-26 14:39 | 28.03840 | -16.89479 | 2991 ft | 321 kts | 212° |
| 2026-04-26 14:40 | 28.01937 | -16.90803 | 2989 ft | 321 kts | 210° |
| 2026-04-26 14:40 | 27.99935 | -16.91809 | 2995 ft | 301 kts | 198° |
| 2026-04-26 14:40 | 27.97996 | -16.92212 | 2999 ft | 270 kts | 182° |
| 2026-04-26 14:40 | 27.96190 | -16.91969 | 3000 ft | 257 kts | 162° |
| 2026-04-26 14:41 | 27.94646 | -16.91040 | 2997 ft | 256 kts | 137° |
| 2026-04-26 14:41 | 27.94219 | -16.90558 | 2990 ft | 253 kts | 128° |
| 2026-04-26 14:41 | 27.93456 | -16.88946 | 2990 ft | 244 kts | 103° |
| 2026-04-26 14:41 | 27.93412 | -16.87068 | 2979 ft | 238 kts | 75° |
| 2026-04-26 14:42 | 27.94071 | -16.85362 | 2984 ft | 237 kts | 59° |
| 2026-04-26 14:42 | 27.94875 | -16.83724 | 2980 ft | 238 kts | 60° |
| 2026-04-26 14:42 | 27.95598 | -16.82037 | 2978 ft | 239 kts | 65° |
| 2026-04-26 14:42 | 27.95809 | -16.81479 | 2975 ft | 238 kts | 65° |
| 2026-04-26 14:43 | 27.96379 | -16.79889 | 2974 ft | 218 kts | 65° |
| 2026-04-26 14:43 | 27.96943 | -16.78349 | 2992 ft | 212 kts | 65° |
| 2026-04-26 14:43 | 27.97506 | -16.76782 | 2997 ft | 216 kts | 66° |
| 2026-04-26 14:43 | 27.98031 | -16.75176 | 2974 ft | 217 kts | 68° |
| 2026-04-26 14:44 | 27.98548 | -16.73563 | 2935 ft | 218 kts | 67° |
| 2026-04-26 14:44 | 27.99129 | -16.71995 | 2733 ft | 211 kts | 64° |
| 2026-04-26 14:44 | 27.99701 | -16.70538 | 2420 ft | 199 kts | 63° |
| 2026-04-26 14:44 | 28.00230 | -16.69130 | 2142 ft | 188 kts | 66° |
| 2026-04-26 14:45 | 28.00693 | -16.67790 | 1885 ft | 180 kts | 67° |
| 2026-04-26 14:45 | 28.00997 | -16.66926 | 1731 ft | 174 kts | 67° |
| 2026-04-26 14:45 | 28.01569 | -16.65324 | 1444 ft | 156 kts | 67° |
| 2026-04-26 14:45 | 28.01972 | -16.64199 | 1235 ft | 156 kts | 67° |
| 2026-04-26 14:46 | 28.02364 | -16.63057 | 1048 ft | 156 kts | 68° |
| 2026-04-26 14:46 | 28.02806 | -16.61928 | 914 ft | 158 kts | 67° |
| 2026-04-26 14:46 | 28.03213 | -16.60753 | 632 ft | 162 kts | 70° |
| 2026-04-26 14:46 | 28.03633 | -16.59576 | 369 ft | 159 kts | 70° |
| 2026-04-26 14:47 | 28.04028 | -16.58448 | 215 ft | 147 kts | 71° |
| 2026-04-26 14:47 | 28.04329 | -16.57573 | 208 ft | 80 kts | 68° |
| 2026-04-26 14:47 | 28.04503 | -16.57085 | 209 ft | 48 kts | 60° |
| 2026-04-26 14:47 | 28.04618 | -16.56925 | 213 ft | 13 kts | 48° |
| 2026-04-26 14:48 | 28.04681 | -16.56845 | 213 ft | 14 kts | 48° |
| 2026-04-26 14:48 | 28.04743 | -16.56776 | 217 ft | 8 kts | 21° |
| 2026-04-26 14:48 | 28.04781 | -16.56792 | 219 ft | 9 kts | 308° |
| 2026-04-26 14:48 | 28.04768 | -16.56888 | 212 ft | 18 kts | 248° |
| 2026-04-26 14:49 | 28.04710 | -16.57053 | 209 ft | 27 kts | 248° |
| 2026-04-26 14:49 | 28.04632 | -16.57255 | 211 ft | 29 kts | 248° |
| 2026-04-26 14:49 | 28.04555 | -16.57470 | 207 ft | 30 kts | 249° |
| 2026-04-26 14:49 | 28.04500 | -16.57633 | 209 ft | 12 kts | 259° |
| 2026-04-26 14:50 | 28.04549 | -16.57689 | 205 ft | 11 kts | 338° |
| 2026-04-26 14:50 | 28.04595 | -16.57726 | 212 ft | 7 kts | 286° |
| 2026-04-26 14:50 | 28.04608 | -16.57768 | 214 ft | 4 kts | 291° |
| 2026-04-26 14:50 | 28.04617 | -16.57807 | 206 ft | 8 kts | 294° |
| 2026-04-26 14:51 | 28.04653 | -16.57835 | 205 ft | 0 kts | 341° |